createdAt,value
2019-02-09T00:00:37.956Z,6.30
2019-02-09T00:03:11.464Z,6.75
2019-02-09T00:05:42.842Z,5.83
2019-02-09T00:08:11.432Z,5.78
2019-02-09T00:10:42.628Z,5.58
2019-02-09T00:13:11.554Z,5.37
2019-02-09T00:15:40.540Z,5.40
2019-02-09T00:18:09.430Z,5.05
2019-02-09T00:20:44.160Z,5.20
2019-02-09T00:23:14.659Z,5.35
2019-02-09T00:25:43.538Z,4.87
2019-02-09T00:28:12.412Z,4.67
2019-02-09T00:30:47.281Z,4.80
2019-02-09T00:33:17.845Z,4.33
2019-02-09T00:35:46.846Z,3.87
2019-02-09T00:38:15.726Z,4.10
2019-02-09T00:40:46.888Z,3.97
2019-02-09T00:43:15.814Z,3.80
2019-02-09T00:45:48.554Z,4.25
2019-02-09T00:48:18.978Z,3.72
2019-02-09T00:50:47.925Z,3.52
2019-02-09T00:53:17.198Z,3.50
2019-02-09T00:55:55.402Z,3.10
2019-02-09T00:58:26.864Z,3.20
2019-02-09T01:00:55.236Z,3.27
2019-02-09T01:03:24.095Z,3.45
2019-02-09T01:05:53.121Z,2.80
2019-02-09T01:08:23.829Z,3.33
2019-02-09T01:10:54.648Z,3.17
2019-02-09T01:13:26.935Z,2.60
2019-02-09T01:15:58.036Z,2.98
2019-02-09T01:18:28.159Z,2.90
2019-02-09T01:21:00.379Z,3.12
2019-02-09T01:23:29.435Z,2.87
2019-02-09T01:26:03.650Z,2.92
2019-02-09T01:28:32.511Z,3.33
2019-02-09T01:31:03.921Z,2.80
2019-02-09T01:33:36.961Z,2.98
2019-02-09T01:36:05.846Z,3.62
2019-02-09T01:38:34.779Z,2.62
2019-02-09T01:41:03.725Z,2.55
2019-02-09T01:43:34.135Z,2.72
2019-02-09T01:46:04.625Z,2.30
2019-02-09T01:48:34.026Z,2.35
2019-02-09T01:51:03.070Z,1.70
2019-02-09T01:53:32.080Z,1.50
2019-02-09T01:56:00.941Z,1.92
2019-02-09T01:58:30.225Z,1.57
2019-02-09T02:00:59.045Z,1.30
2019-02-09T02:03:30.739Z,1.55
2019-02-09T02:06:06.715Z,1.85
2019-02-09T02:08:35.590Z,1.30
2019-02-09T02:11:04.557Z,1.70
2019-02-09T02:13:39.403Z,2.00
2019-02-09T02:16:08.263Z,1.82
2019-02-09T02:18:43.091Z,1.62
2019-02-09T02:21:11.979Z,1.70
2019-02-09T02:23:41.983Z,1.45
2019-02-09T02:26:13.550Z,2.17
2019-02-09T02:28:42.427Z,1.57
2019-02-09T02:31:11.298Z,1.90
2019-02-09T02:33:40.195Z,2.12
2019-02-09T02:36:09.193Z,1.67
2019-02-09T02:38:39.926Z,2.22
2019-02-09T02:41:08.848Z,1.77
2019-02-09T02:43:38.778Z,1.70
2019-02-09T02:46:07.742Z,2.17
2019-02-09T02:48:38.301Z,2.58
2019-02-09T02:51:13.722Z,2.22
2019-02-09T02:53:40.462Z,3.05
2019-02-09T02:56:11.054Z,2.02
2019-02-09T02:58:39.918Z,3.17
2019-02-09T03:01:13.100Z,2.22
2019-02-09T03:03:41.967Z,2.65
2019-02-09T03:06:11.190Z,2.40
2019-02-09T03:08:42.367Z,2.62
2019-02-09T03:11:12.851Z,2.22
2019-02-09T03:13:47.546Z,2.37
2019-02-09T03:16:18.050Z,2.40
2019-02-09T03:18:48.548Z,1.95
2019-02-09T03:21:22.950Z,3.00
2019-02-09T03:23:52.048Z,3.02
2019-02-09T03:26:20.902Z,3.10
2019-02-09T03:28:51.481Z,3.10
2019-02-09T03:31:20.363Z,2.85
2019-02-09T03:33:52.402Z,2.90
2019-02-09T03:36:21.265Z,2.70
2019-02-09T03:38:50.130Z,2.30
2019-02-09T03:41:24.517Z,2.22
2019-02-09T03:43:54.918Z,3.37
2019-02-09T03:46:27.113Z,3.33
2019-02-09T03:48:55.979Z,2.47
2019-02-09T03:51:24.852Z,2.83
2019-02-09T03:53:54.028Z,2.95
2019-02-09T03:56:23.113Z,2.43
2019-02-09T03:58:55.161Z,2.17
2019-02-09T04:01:25.760Z,2.35
2019-02-09T04:03:54.632Z,2.83
2019-02-09T04:06:25.178Z,2.25
2019-02-09T04:08:54.054Z,2.27
2019-02-09T04:11:23.285Z,2.70
2019-02-09T04:13:52.158Z,2.12
2019-02-09T04:16:23.313Z,2.72
2019-02-09T04:18:52.201Z,2.35
2019-02-09T04:21:23.812Z,2.77
2019-02-09T04:23:54.309Z,3.08
2019-02-09T04:26:41.383Z,2.70
2019-02-09T04:29:10.305Z,2.72
2019-02-09T04:31:39.161Z,2.70
2019-02-09T04:34:08.081Z,2.70
2019-02-09T04:36:38.557Z,2.98
2019-02-09T04:39:11.198Z,3.52
2019-02-09T04:41:42.203Z,3.17
2019-02-09T04:44:17.997Z,2.92
2019-02-09T04:46:49.202Z,2.70
2019-02-09T04:49:23.431Z,2.95
2019-02-09T04:51:52.318Z,3.08
2019-02-09T04:54:23.050Z,2.72
2019-02-09T04:56:53.607Z,3.25
2019-02-09T04:59:22.481Z,2.62
2019-02-09T05:01:55.889Z,3.27
2019-02-09T05:04:27.318Z,2.75
2019-02-09T05:06:56.252Z,2.70
2019-02-09T05:09:27.099Z,2.55
2019-02-09T05:11:57.590Z,2.33
2019-02-09T05:14:28.760Z,2.70
2019-02-09T05:17:00.206Z,2.58
2019-02-09T05:19:28.809Z,2.52
2019-02-09T05:21:59.458Z,2.62
2019-02-09T05:24:30.513Z,3.02
2019-02-09T05:27:01.069Z,3.05
2019-02-09T05:29:30.156Z,2.20
2019-02-09T05:32:01.792Z,2.60
2019-02-09T05:34:32.450Z,2.70
2019-02-09T05:37:01.437Z,2.90
2019-02-09T05:39:30.435Z,2.70
2019-02-09T05:41:59.319Z,2.02
2019-02-09T05:44:28.176Z,2.42
2019-02-09T05:47:00.879Z,3.30
2019-02-09T05:49:32.118Z,2.60
2019-02-09T05:52:00.407Z,2.22
2019-02-09T05:54:29.294Z,2.60
2019-02-09T05:57:01.236Z,2.40
2019-02-09T05:59:31.768Z,2.67
2019-02-09T06:02:24.415Z,2.87
2019-02-09T06:04:58.836Z,2.37
2019-02-09T06:07:29.415Z,2.83
2019-02-09T06:10:01.376Z,2.98
2019-02-09T06:12:30.347Z,3.05
2019-02-09T06:14:59.220Z,3.08
2019-02-09T06:17:28.364Z,3.25
2019-02-09T06:19:58.868Z,3.60
2019-02-09T06:22:30.671Z,3.35
2019-02-09T06:24:59.535Z,3.80
2019-02-09T06:27:29.424Z,3.83
2019-02-09T06:29:58.527Z,3.72
2019-02-09T06:32:28.555Z,3.90
2019-02-09T06:34:58.686Z,4.30
2019-02-09T06:39:59.345Z,4.12
2019-02-09T06:42:33.386Z,4.75
2019-02-09T06:45:04.231Z,4.85
2019-02-09T06:47:42.255Z,4.10
2019-02-09T06:50:15.161Z,4.05
2019-02-09T06:52:45.914Z,4.92
2019-02-09T06:55:15.495Z,4.10
2019-02-09T06:57:46.024Z,3.52
2019-02-09T07:00:19.869Z,4.15
2019-02-09T07:02:50.487Z,4.30
2019-02-09T07:05:19.971Z,4.47
2019-02-09T07:07:50.537Z,4.25
2019-02-09T07:10:30.305Z,3.90
2019-02-09T07:13:01.483Z,3.77
2019-02-09T07:15:31.533Z,4.30
2019-02-09T07:18:00.447Z,4.97
2019-02-09T07:20:33.629Z,4.00
2019-02-09T07:23:02.517Z,3.58
2019-02-09T07:25:34.307Z,4.35
2019-02-09T07:28:06.243Z,3.45
2019-02-09T07:30:35.493Z,4.45
2019-02-09T07:33:06.883Z,4.12
2019-02-09T07:35:36.930Z,4.25
2019-02-09T07:38:05.923Z,4.20
2019-02-09T07:40:34.821Z,4.25
2019-02-09T07:43:04.037Z,3.98
2019-02-09T07:45:34.236Z,4.20
2019-02-09T07:48:08.231Z,4.05
2019-02-09T07:50:37.091Z,2.92
2019-02-09T07:53:07.197Z,3.87
2019-02-09T07:55:37.045Z,3.52
2019-02-09T07:58:11.901Z,4.35
2019-02-09T08:00:40.760Z,4.22
2019-02-09T08:03:12.203Z,4.05
2019-02-09T08:05:42.150Z,4.47
2019-02-09T08:10:39.448Z,4.70
2019-02-09T08:13:08.966Z,4.65
2019-02-09T08:15:39.754Z,4.78
2019-02-09T08:18:12.074Z,4.12
2019-02-09T08:20:42.096Z,4.42
2019-02-09T08:25:43.391Z,3.92
2019-02-09T08:28:18.446Z,3.45
2019-02-09T08:30:49.227Z,4.00
2019-02-09T08:33:22.772Z,3.75
2019-02-09T08:35:51.646Z,3.72
2019-02-09T08:38:20.686Z,4.90
2019-02-09T08:40:52.036Z,4.08
2019-02-09T08:43:20.900Z,4.28
2019-02-09T08:45:49.778Z,3.58
2019-02-09T08:48:21.675Z,4.17
2019-02-09T08:50:56.330Z,4.42
2019-02-09T08:53:25.274Z,4.05
2019-02-09T08:55:57.958Z,4.10
2019-02-09T08:58:27.114Z,3.80
2019-02-09T09:00:56.018Z,3.63
2019-02-09T09:03:27.558Z,3.85
2019-02-09T09:05:58.054Z,4.08
2019-02-09T09:08:27.120Z,3.47
2019-02-09T09:10:55.987Z,3.83
2019-02-09T09:13:24.874Z,3.42
2019-02-09T09:15:55.552Z,3.85
2019-02-09T09:18:24.415Z,3.52
2019-02-09T09:20:57.767Z,3.20
2019-02-09T09:23:26.643Z,3.27
2019-02-09T09:25:55.523Z,3.75
2019-02-09T09:28:24.401Z,4.15
2019-02-09T09:30:58.447Z,3.85
2019-02-09T09:33:29.904Z,4.10
2019-02-09T09:35:58.784Z,3.70
2019-02-09T09:38:27.675Z,4.00
2019-02-09T09:40:56.622Z,3.50
2019-02-09T09:43:25.588Z,3.72
2019-02-09T09:45:56.266Z,3.62
2019-02-09T09:48:25.545Z,3.60
2019-02-09T09:50:56.045Z,3.80
2019-02-09T09:53:26.535Z,3.33
2019-02-09T09:55:55.433Z,3.60
2019-02-09T09:58:25.508Z,3.72
2019-02-09T10:03:24.566Z,3.83
2019-02-09T10:05:53.431Z,3.27
2019-02-09T10:08:25.093Z,3.85
2019-02-09T10:10:53.996Z,2.92
2019-02-09T10:13:26.763Z,3.42
2019-02-09T10:15:56.679Z,3.67
2019-02-09T10:18:31.208Z,2.90
2019-02-09T10:21:00.051Z,3.62
2019-02-09T10:23:28.923Z,3.25
2019-02-09T10:25:58.141Z,4.33
2019-02-09T10:28:26.983Z,3.47
2019-02-09T10:31:00.139Z,3.85
2019-02-09T10:33:27.539Z,3.87
2019-02-09T10:36:05.613Z,3.50
2019-02-09T10:38:34.741Z,3.65
2019-02-09T10:41:03.682Z,4.03
2019-02-09T10:43:35.173Z,3.83
2019-02-09T10:46:05.717Z,3.70
2019-02-09T10:48:34.596Z,3.90
2019-02-09T10:51:03.548Z,3.75
2019-02-09T10:53:35.474Z,3.10
2019-02-09T10:56:04.606Z,3.70
2019-02-09T10:58:35.083Z,3.00
2019-02-09T11:01:05.680Z,3.27
2019-02-09T11:03:38.005Z,3.35
2019-02-09T11:06:06.874Z,3.55
2019-02-09T11:08:38.872Z,3.80
2019-02-09T11:11:07.947Z,3.30
2019-02-09T11:13:39.216Z,3.22
2019-02-09T11:16:11.454Z,2.72
2019-02-09T11:18:40.295Z,3.10
2019-02-09T11:21:15.560Z,3.45
2019-02-09T11:23:43.918Z,3.12
2019-02-09T11:26:13.858Z,3.10
2019-02-09T11:28:42.899Z,3.47
2019-02-09T11:31:13.211Z,2.72
2019-02-09T11:33:43.696Z,3.08
2019-02-09T11:36:12.552Z,3.33
2019-02-09T11:38:41.435Z,3.02
2019-02-09T11:41:14.300Z,3.70
2019-02-09T11:43:45.518Z,3.65
2019-02-09T11:46:14.487Z,3.62
2019-02-09T11:48:44.982Z,3.40
2019-02-09T11:51:13.847Z,3.37
2019-02-09T11:56:12.218Z,3.55
2019-02-09T11:58:41.094Z,3.27
2019-02-09T12:01:09.973Z,3.75
2019-02-09T12:03:38.847Z,4.00
2019-02-09T12:06:09.658Z,4.00
2019-02-09T12:08:39.049Z,4.03
2019-02-09T12:11:09.860Z,3.50
2019-02-09T12:13:40.349Z,3.92
2019-02-09T12:16:12.839Z,3.83
2019-02-09T12:18:42.835Z,3.80
2019-02-09T12:21:11.727Z,3.72
2019-02-09T12:23:40.697Z,4.83
2019-02-09T12:26:12.447Z,4.28
2019-02-09T12:28:42.921Z,4.70
2019-02-09T12:31:11.985Z,3.35
2019-02-09T12:33:42.901Z,3.95
2019-02-09T12:38:47.785Z,4.37
2019-02-09T12:41:16.707Z,4.20
2019-02-09T12:43:45.589Z,3.80
2019-02-09T12:46:15.921Z,4.20
2019-02-09T12:48:44.812Z,4.15
2019-02-09T12:51:15.366Z,4.25
2019-02-09T12:53:44.255Z,4.30
2019-02-09T12:56:13.106Z,4.58
2019-02-09T12:58:45.155Z,4.28
2019-02-09T13:01:18.421Z,3.95
2019-02-09T13:03:52.203Z,4.03
2019-02-09T13:06:26.965Z,3.70
2019-02-09T13:08:57.996Z,4.15
2019-02-09T13:11:26.966Z,3.05
2019-02-09T13:14:03.952Z,3.58
2019-02-09T13:16:35.042Z,3.58
2019-02-09T13:19:03.986Z,3.95
2019-02-09T13:21:32.869Z,3.50
2019-02-09T13:24:02.978Z,3.02
2019-02-09T13:29:06.250Z,3.75
2019-02-09T13:31:37.084Z,4.78
2019-02-09T13:34:05.998Z,3.33
2019-02-09T13:36:36.818Z,3.75
2019-02-09T13:39:07.814Z,3.83
2019-02-09T13:41:38.330Z,3.35
2019-02-09T13:44:07.210Z,2.83
2019-02-09T13:46:36.410Z,4.12
2019-02-09T13:49:06.887Z,3.93
2019-02-09T13:51:35.984Z,3.67
2019-02-09T13:54:04.980Z,3.55
2019-02-09T13:56:36.972Z,2.98
2019-02-09T13:59:05.906Z,3.98
2019-02-09T14:01:34.778Z,4.80
2019-02-09T14:04:03.942Z,4.22
2019-02-09T14:06:34.877Z,4.97
2019-02-09T14:09:09.601Z,4.40
2019-02-09T14:11:37.704Z,4.62
2019-02-09T14:14:06.564Z,4.50
2019-02-09T14:16:38.830Z,4.60
2019-02-09T14:19:09.679Z,5.30
2019-02-09T14:25:22.080Z,4.08
2019-02-09T14:27:55.418Z,5.20
2019-02-09T14:30:25.351Z,4.67
2019-02-09T14:32:56.042Z,4.72
2019-02-09T14:35:30.375Z,4.12
2019-02-09T14:38:01.672Z,3.95
2019-02-09T14:40:38.590Z,4.05
2019-02-09T14:43:07.835Z,4.47
2019-02-09T14:45:43.244Z,4.33
2019-02-09T14:48:12.612Z,4.92
2019-02-09T14:50:41.554Z,5.78
2019-02-09T14:53:12.814Z,3.75
2019-02-09T14:55:42.042Z,4.37
2019-02-09T14:58:14.431Z,4.85
2019-02-09T15:00:45.074Z,4.62
2019-02-09T15:03:14.546Z,4.53
2019-02-09T15:05:43.396Z,4.67
2019-02-09T15:08:13.883Z,4.12
2019-02-09T15:10:42.829Z,4.72
2019-02-09T15:13:14.613Z,4.55
2019-02-09T15:15:45.359Z,4.85
2019-02-09T15:18:14.291Z,4.50
2019-02-09T15:20:44.785Z,3.95
2019-02-09T15:23:13.653Z,4.10
2019-02-09T15:25:42.516Z,4.65
2019-02-09T15:28:14.537Z,4.65
2019-02-09T15:30:48.417Z,3.60
2019-02-09T15:33:17.669Z,3.58
2019-02-09T15:35:46.519Z,4.53
2019-02-09T15:38:15.677Z,4.33
2019-02-09T15:40:44.589Z,4.20
2019-02-09T15:43:16.575Z,3.87
2019-02-09T15:45:45.429Z,3.92
2019-02-09T15:48:14.365Z,4.00
2019-02-09T15:50:43.228Z,4.42
2019-02-09T15:56:39.548Z,4.03
2019-02-09T15:59:11.471Z,4.37
2019-02-09T16:01:40.342Z,4.00
2019-02-09T16:04:09.198Z,3.62
2019-02-09T16:06:42.056Z,4.65
2019-02-09T16:09:11.055Z,4.33
2019-02-09T16:11:39.920Z,4.65
2019-02-09T16:14:11.121Z,4.60
2019-02-09T16:16:42.738Z,4.28
2019-02-09T16:19:11.787Z,3.42
2019-02-09T16:21:41.311Z,4.20
2019-02-09T16:24:10.203Z,3.80
2019-02-09T16:26:41.078Z,4.10
2019-02-09T16:29:10.138Z,4.37
2019-02-09T16:31:44.439Z,4.20
2019-02-09T16:34:13.388Z,3.92
2019-02-09T16:36:42.274Z,4.40
2019-02-09T16:39:11.370Z,3.87
2019-02-09T16:41:40.335Z,4.72
2019-02-09T16:44:12.626Z,4.50
2019-02-09T16:46:41.556Z,4.20
2019-02-09T16:49:10.422Z,5.25
2019-02-09T16:51:39.393Z,4.55
2019-02-09T16:54:08.277Z,4.70
2019-02-09T16:56:37.348Z,5.10
2019-02-09T16:59:06.254Z,5.17
2019-02-09T17:01:35.168Z,4.08
2019-02-09T17:04:05.076Z,4.40
2019-02-09T17:06:48.135Z,4.50
2019-02-09T17:09:19.615Z,4.55
2019-02-09T17:11:48.509Z,4.50
2019-02-09T17:14:19.715Z,3.60
2019-02-09T17:16:51.906Z,4.72
2019-02-09T17:19:20.791Z,4.37
2019-02-09T17:21:49.659Z,4.97
2019-02-09T17:24:21.502Z,4.37
2019-02-09T17:26:54.351Z,3.65
2019-02-09T17:29:23.213Z,3.58
2019-02-09T17:31:54.849Z,4.03
2019-02-09T17:34:26.706Z,3.40
2019-02-09T17:36:59.712Z,3.33
2019-02-09T17:39:31.161Z,3.50
2019-02-09T17:42:00.043Z,3.42
2019-02-09T17:44:30.569Z,3.80
2019-02-09T17:47:00.827Z,3.80
2019-02-09T17:49:29.815Z,3.75
2019-02-09T17:51:58.707Z,3.52
2019-02-09T17:54:28.145Z,3.60
2019-02-09T17:56:57.025Z,3.90
2019-02-09T17:59:26.403Z,3.90
2019-02-09T18:01:55.287Z,3.72
2019-02-09T18:04:24.363Z,3.27
2019-02-09T18:06:54.906Z,4.03
2019-02-09T18:09:23.814Z,5.00
2019-02-09T18:11:53.244Z,3.35
2019-02-09T18:14:23.831Z,4.55
2019-02-09T18:16:55.081Z,4.42
2019-02-09T18:19:24.210Z,4.50
2019-02-09T18:21:53.061Z,5.12
2019-02-09T18:24:22.203Z,4.00
2019-02-09T18:26:52.853Z,3.90
2019-02-09T18:29:21.729Z,4.20
2019-02-09T18:31:50.589Z,4.10
2019-02-09T18:34:19.471Z,4.03
2019-02-09T18:36:48.385Z,3.17
2019-02-09T18:39:24.041Z,2.75
2019-02-09T18:41:54.405Z,3.58
2019-02-09T18:44:23.253Z,3.58
2019-02-09T18:46:52.147Z,3.17
2019-02-09T18:49:21.021Z,2.95
2019-02-09T18:51:50.631Z,3.35
2019-02-09T18:54:19.507Z,3.30
2019-02-09T18:56:48.378Z,3.17
2019-02-09T18:59:17.247Z,2.90
2019-02-09T19:01:48.464Z,3.55
2019-02-09T19:04:17.351Z,4.12
2019-02-09T19:06:48.774Z,3.35
2019-02-09T19:09:17.657Z,4.45
2019-02-09T19:11:46.606Z,3.70
2019-02-09T19:14:15.482Z,3.65
2019-02-09T19:16:47.162Z,3.52
2019-02-09T19:19:16.250Z,3.45
2019-02-09T19:21:45.330Z,3.40
2019-02-09T19:24:16.177Z,4.37
2019-02-09T19:26:44.758Z,3.70
2019-02-09T19:29:15.271Z,3.83
2019-02-09T19:31:45.306Z,3.40
2019-02-09T19:34:18.442Z,3.55
2019-02-09T19:36:51.484Z,4.15
2019-02-09T19:39:21.476Z,3.40
2019-02-09T19:41:50.344Z,3.40
2019-02-09T19:44:21.492Z,3.75
2019-02-09T19:46:50.368Z,3.60
2019-02-09T19:49:21.410Z,3.85
2019-02-09T19:51:52.042Z,3.83
2019-02-09T19:54:26.628Z,3.62
2019-02-09T19:56:54.878Z,3.98
2019-02-09T19:59:23.818Z,4.10
2019-02-09T20:01:52.840Z,3.42
2019-02-09T20:04:21.698Z,3.67
2019-02-09T20:06:52.949Z,3.35
2019-02-09T20:09:22.027Z,3.20
2019-02-09T20:11:52.744Z,3.25
2019-02-09T20:14:21.609Z,3.72
2019-02-09T20:16:51.754Z,3.20
2019-02-09T20:19:22.267Z,3.05
2019-02-09T20:21:51.171Z,3.58
2019-02-09T20:24:20.047Z,3.95
2019-02-09T20:26:56.248Z,3.35
2019-02-09T20:29:26.867Z,3.30
2019-02-09T20:31:55.717Z,3.05
2019-02-09T20:34:26.243Z,3.75
2019-02-09T20:36:57.391Z,3.60
2019-02-09T20:39:26.000Z,3.55
2019-02-09T20:41:56.125Z,3.30
2019-02-09T20:44:26.971Z,3.65
2019-02-09T20:46:57.524Z,3.30
2019-02-09T20:49:26.400Z,3.30
2019-02-09T20:51:59.410Z,3.58
2019-02-09T20:54:31.095Z,3.60
2019-02-09T20:57:08.601Z,3.70
2019-02-09T20:59:39.295Z,3.67
2019-02-09T21:02:08.656Z,3.22
2019-02-09T21:04:37.621Z,3.22
2019-02-09T21:07:07.165Z,3.00
2019-02-09T21:09:39.465Z,3.22
2019-02-09T21:12:12.763Z,3.00
2019-02-09T21:14:41.633Z,2.72
2019-02-09T21:17:10.615Z,3.08
2019-02-09T21:19:41.130Z,3.17
2019-02-09T21:22:10.014Z,3.47
2019-02-09T21:24:45.982Z,3.42
2019-02-09T21:27:19.043Z,2.87
2019-02-09T21:29:47.907Z,2.80
2019-02-09T21:32:17.801Z,3.55
2019-02-09T21:34:46.716Z,3.33
2019-02-09T21:37:17.222Z,3.00
2019-02-09T21:39:50.926Z,3.10
2019-02-09T21:42:21.486Z,3.60
2019-02-09T21:44:53.240Z,3.20
2019-02-09T21:47:26.004Z,3.33
2019-02-09T21:49:55.634Z,3.47
2019-02-09T21:52:24.458Z,3.27
2019-02-09T21:54:53.330Z,3.90
2019-02-09T21:57:22.424Z,3.37
2019-02-09T21:59:52.912Z,3.20
2019-02-09T22:02:21.825Z,3.50
2019-02-09T22:04:50.704Z,3.50
2019-02-09T22:07:22.937Z,3.55
2019-02-09T22:09:51.807Z,3.35
2019-02-09T22:12:22.394Z,3.70
2019-02-09T22:14:53.235Z,3.08
2019-02-09T22:17:23.962Z,3.33
2019-02-09T22:19:53.158Z,3.62
2019-02-09T22:22:22.358Z,3.15
2019-02-09T22:24:51.236Z,3.80
2019-02-09T22:27:20.323Z,3.73
2019-02-09T22:29:49.254Z,4.08
2019-02-09T22:32:19.119Z,3.33
2019-02-09T22:34:49.766Z,3.52
2019-02-09T22:37:25.958Z,3.55
2019-02-09T22:39:56.394Z,3.67
2019-02-09T22:42:25.417Z,3.42
2019-02-09T22:44:54.283Z,3.47
2019-02-09T22:47:25.929Z,4.62
2019-02-09T22:49:54.479Z,3.50
2019-02-09T22:52:23.346Z,3.42
2019-02-09T22:54:53.805Z,3.55
2019-02-09T22:57:22.851Z,3.45
2019-02-09T22:59:56.395Z,3.33
2019-02-09T23:02:30.660Z,3.60
2019-02-09T23:04:59.801Z,3.12
2019-02-09T23:07:32.418Z,3.00
2019-02-09T23:10:01.371Z,3.17
2019-02-09T23:12:31.871Z,3.27
2019-02-09T23:15:00.759Z,2.72
2019-02-09T23:17:29.615Z,2.77
2019-02-09T23:19:58.489Z,3.20
2019-02-09T23:22:27.569Z,2.87
2019-02-09T23:24:56.445Z,3.17
2019-02-09T23:30:00.341Z,2.95
2019-02-09T23:32:29.620Z,3.15
2019-02-09T23:34:59.313Z,3.00
2019-02-09T23:37:28.225Z,3.00
2019-02-09T23:39:57.242Z,2.62
2019-02-09T23:42:26.161Z,2.60
2019-02-09T23:44:57.203Z,2.83
2019-02-09T23:47:30.962Z,2.60
2019-02-09T23:49:59.825Z,2.75
2019-02-09T23:52:28.907Z,2.85
2019-02-09T23:54:59.385Z,3.08
2019-02-09T23:57:31.559Z,2.70
